createdAt,value
2023-07-03T00:00:44.013Z,30.40
2023-07-03T00:01:44.054Z,30.40
2023-07-03T00:02:44.135Z,30.38
2023-07-03T00:03:44.068Z,30.40
2023-07-03T00:04:44.161Z,30.43
2023-07-03T00:05:44.130Z,30.40
2023-07-03T00:06:44.618Z,30.38
2023-07-03T00:07:44.165Z,30.38
2023-07-03T00:08:44.201Z,30.38
2023-07-03T00:09:44.245Z,30.40
2023-07-03T00:10:44.234Z,30.37
2023-07-03T00:11:44.281Z,30.38
2023-07-03T00:12:44.281Z,30.37
2023-07-03T00:13:44.321Z,30.38
2023-07-03T00:14:44.334Z,30.40
2023-07-03T00:15:44.351Z,30.40
2023-07-03T00:16:44.473Z,30.38
2023-07-03T00:17:44.431Z,30.40
2023-07-03T00:18:44.443Z,30.40
2023-07-03T00:19:44.437Z,30.40
2023-07-03T00:20:44.458Z,30.38
2023-07-03T00:21:44.654Z,30.38
2023-07-03T00:22:44.509Z,30.38
2023-07-03T00:23:44.543Z,30.37
2023-07-03T00:24:44.533Z,30.37
2023-07-03T00:25:44.573Z,30.38
2023-07-03T00:26:44.595Z,30.37
2023-07-03T00:27:44.639Z,30.38
2023-07-03T00:28:44.656Z,30.37
2023-07-03T00:29:44.683Z,30.37
2023-07-03T00:30:44.737Z,30.37
2023-07-03T00:31:44.769Z,30.40
2023-07-03T00:32:44.797Z,30.37
2023-07-03T00:33:44.790Z,30.35
2023-07-03T00:34:44.846Z,30.38
2023-07-03T00:35:44.858Z,30.38
2023-07-03T00:36:44.888Z,30.35
2023-07-03T00:37:44.897Z,30.37
2023-07-03T00:38:44.929Z,30.38
2023-07-03T00:39:44.949Z,30.37
2023-07-03T00:40:44.999Z,30.35
2023-07-03T00:41:45.011Z,30.38
2023-07-03T00:42:45.036Z,30.37
2023-07-03T00:43:45.071Z,30.37
2023-07-03T00:44:45.089Z,30.37
2023-07-03T00:45:45.122Z,30.37
2023-07-03T00:46:45.190Z,30.35
2023-07-03T00:47:45.185Z,30.34
2023-07-03T00:48:45.213Z,30.37
2023-07-03T00:49:45.236Z,30.37
2023-07-03T00:50:45.278Z,30.35
2023-07-03T00:51:45.301Z,30.34
2023-07-03T00:52:45.343Z,30.35
2023-07-03T00:53:45.364Z,30.35
2023-07-03T00:54:45.404Z,30.37
2023-07-03T00:55:45.443Z,30.34
2023-07-03T00:56:45.471Z,30.35
2023-07-03T00:57:45.509Z,30.34
2023-07-03T00:58:45.509Z,30.34
2023-07-03T00:59:45.543Z,30.34
2023-07-03T01:00:53.107Z,30.35
2023-07-03T01:01:45.642Z,30.37
2023-07-03T01:02:45.720Z,30.34
2023-07-03T01:03:45.568Z,30.38
2023-07-03T01:04:45.626Z,30.35
2023-07-03T01:05:45.579Z,30.35
2023-07-03T01:06:45.539Z,30.34
2023-07-03T01:07:45.743Z,30.35
2023-07-03T01:08:45.539Z,30.35
2023-07-03T01:09:45.541Z,30.33
2023-07-03T01:10:45.515Z,30.34
2023-07-03T01:11:45.704Z,30.34
2023-07-03T01:12:45.529Z,30.34
2023-07-03T01:13:45.521Z,30.33
2023-07-03T01:14:45.490Z,30.34
2023-07-03T01:15:45.518Z,30.34
2023-07-03T01:16:45.576Z,30.34
2023-07-03T01:17:45.559Z,30.33
2023-07-03T01:18:45.456Z,30.31
2023-07-03T01:19:45.506Z,30.33
2023-07-03T01:20:45.456Z,30.33
2023-07-03T01:21:45.458Z,30.31
2023-07-03T01:22:45.474Z,30.31
2023-07-03T01:23:45.502Z,30.33
2023-07-03T01:24:45.540Z,30.33
2023-07-03T01:25:45.568Z,30.33
2023-07-03T01:26:45.616Z,30.34
2023-07-03T01:27:45.661Z,30.33
2023-07-03T01:28:45.672Z,30.34
2023-07-03T01:29:45.697Z,30.34
2023-07-03T01:30:45.756Z,30.33
2023-07-03T01:31:45.815Z,30.34
2023-07-03T01:32:45.833Z,30.34
2023-07-03T01:33:45.830Z,30.31
2023-07-03T01:34:45.858Z,30.34
2023-07-03T01:35:45.913Z,30.34
2023-07-03T01:36:45.968Z,30.33
2023-07-03T01:37:45.969Z,30.33
2023-07-03T01:38:45.999Z,30.31
2023-07-03T01:39:46.023Z,30.31
2023-07-03T01:40:46.041Z,30.31
2023-07-03T01:41:46.097Z,30.31
2023-07-03T01:42:46.125Z,30.33
2023-07-03T01:43:46.143Z,30.31
2023-07-03T01:44:46.172Z,30.31
2023-07-03T01:45:46.246Z,30.33
2023-07-03T01:46:46.231Z,30.31
2023-07-03T01:47:46.322Z,30.33
2023-07-03T01:48:46.304Z,30.31
2023-07-03T01:49:46.333Z,30.34
2023-07-03T01:50:46.360Z,30.33
2023-07-03T01:51:46.389Z,30.33
2023-07-03T01:52:46.430Z,30.34
2023-07-03T01:53:46.455Z,30.33
2023-07-03T01:54:46.489Z,30.33
2023-07-03T01:55:46.531Z,30.30
2023-07-03T01:56:46.567Z,30.31
2023-07-03T01:57:46.640Z,30.30
2023-07-03T01:58:46.636Z,30.31
2023-07-03T01:59:46.649Z,30.31
2023-07-03T02:00:46.677Z,30.28
2023-07-03T02:01:46.792Z,30.30
2023-07-03T02:02:46.822Z,30.30
2023-07-03T02:03:46.819Z,30.31
2023-07-03T02:04:46.878Z,30.30
2023-07-03T02:05:46.854Z,30.33
2023-07-03T02:06:46.888Z,30.30
2023-07-03T02:07:46.915Z,30.30
2023-07-03T02:08:46.963Z,30.33
2023-07-03T02:09:46.983Z,30.30
2023-07-03T02:10:47.700Z,30.28
2023-07-03T02:11:47.071Z,30.30
2023-07-03T02:12:47.104Z,30.30
2023-07-03T02:13:47.116Z,30.30
2023-07-03T02:14:47.141Z,30.28
2023-07-03T02:15:47.201Z,30.28
2023-07-03T02:16:47.239Z,30.30
2023-07-03T02:17:47.280Z,30.30
2023-07-03T02:18:47.270Z,30.30
2023-07-03T02:19:47.321Z,30.30
2023-07-03T02:20:47.331Z,30.28
2023-07-03T02:21:47.419Z,30.30
2023-07-03T02:22:47.405Z,30.28
2023-07-03T02:23:47.430Z,30.33
2023-07-03T02:24:47.465Z,30.28
2023-07-03T02:25:47.631Z,30.30
2023-07-03T02:26:47.545Z,30.27
2023-07-03T02:27:47.579Z,30.28
2023-07-03T02:28:47.578Z,30.30
2023-07-03T02:29:47.608Z,30.27
2023-07-03T02:30:47.690Z,30.30
2023-07-03T02:31:47.691Z,30.28
2023-07-03T02:32:47.742Z,30.27
2023-07-03T02:33:47.740Z,30.27
2023-07-03T02:34:47.771Z,30.26
2023-07-03T02:35:47.887Z,30.27
2023-07-03T02:36:47.858Z,30.30
2023-07-03T02:37:47.873Z,30.30
2023-07-03T02:38:47.916Z,30.28
2023-07-03T02:39:47.923Z,30.28
2023-07-03T02:40:47.988Z,30.27
2023-07-03T02:41:47.999Z,30.27
2023-07-03T02:42:48.010Z,30.27
2023-07-03T02:43:48.030Z,30.28
2023-07-03T02:44:48.066Z,30.27
2023-07-03T02:45:48.184Z,30.26
2023-07-03T02:46:48.215Z,30.26
2023-07-03T02:47:48.193Z,30.28
2023-07-03T02:48:48.210Z,30.26
2023-07-03T02:49:48.406Z,30.27
2023-07-03T02:50:48.282Z,30.26
2023-07-03T02:51:48.300Z,30.27
2023-07-03T02:52:48.354Z,30.27
2023-07-03T02:53:48.391Z,30.27
2023-07-03T02:54:48.402Z,30.27
2023-07-03T02:55:48.602Z,30.27
2023-07-03T02:56:48.482Z,30.26
2023-07-03T02:57:48.532Z,30.27
2023-07-03T02:58:48.544Z,30.26
2023-07-03T02:59:48.569Z,30.26
2023-07-03T03:00:48.662Z,30.27
2023-07-03T03:01:48.640Z,30.26
2023-07-03T03:02:48.721Z,30.26
2023-07-03T03:03:48.776Z,30.27
2023-07-03T03:04:48.850Z,30.27
2023-07-03T03:05:49.031Z,30.26
2023-07-03T03:06:48.822Z,30.26
2023-07-03T03:07:48.862Z,30.24
2023-07-03T03:08:48.905Z,30.26
2023-07-03T03:09:48.938Z,30.23
2023-07-03T03:10:48.961Z,30.27
2023-07-03T03:11:48.998Z,30.24
2023-07-03T03:12:49.049Z,30.28
2023-07-03T03:13:49.072Z,30.24
2023-07-03T03:14:49.109Z,30.26
2023-07-03T03:15:49.493Z,30.23
2023-07-03T03:16:49.272Z,30.27
2023-07-03T03:17:49.281Z,30.24
2023-07-03T03:18:49.254Z,30.23
2023-07-03T03:19:49.292Z,30.24
2023-07-03T03:20:49.363Z,30.27
2023-07-03T03:21:49.360Z,30.24
2023-07-03T03:22:49.420Z,30.26
2023-07-03T03:23:49.424Z,30.24
2023-07-03T03:24:49.462Z,30.24
2023-07-03T03:25:49.812Z,30.24
2023-07-03T03:26:49.531Z,30.26
2023-07-03T03:27:49.581Z,30.26
2023-07-03T03:28:49.606Z,30.26
2023-07-03T03:29:49.658Z,30.23
2023-07-03T03:30:49.722Z,30.24
2023-07-03T03:31:49.752Z,30.23
2023-07-03T03:32:49.836Z,30.24
2023-07-03T03:33:49.806Z,30.23
2023-07-03T03:34:49.853Z,30.21
2023-07-03T03:35:50.151Z,30.26
2023-07-03T03:36:49.955Z,30.24
2023-07-03T03:37:49.943Z,30.24
2023-07-03T03:38:49.984Z,30.26
2023-07-03T03:39:50.012Z,30.24
2023-07-03T03:40:50.032Z,30.23
2023-07-03T03:41:50.088Z,30.24
2023-07-03T03:42:50.110Z,30.26
2023-07-03T03:43:50.177Z,30.23
2023-07-03T03:44:50.180Z,30.24
2023-07-03T03:45:50.692Z,30.23
2023-07-03T03:46:50.248Z,30.24
2023-07-03T03:47:50.348Z,30.24
2023-07-03T03:48:50.611Z,30.24
2023-07-03T03:49:50.373Z,30.24
2023-07-03T03:50:50.395Z,30.23
2023-07-03T03:51:50.422Z,30.24
2023-07-03T03:52:50.491Z,30.26
2023-07-03T03:53:50.524Z,30.23
2023-07-03T03:54:50.554Z,30.23
2023-07-03T03:55:50.867Z,30.24
2023-07-03T03:56:50.619Z,30.26
2023-07-03T03:57:50.637Z,30.24
2023-07-03T03:58:50.659Z,30.23
2023-07-03T03:59:50.679Z,30.23
2023-07-03T04:00:50.725Z,30.24
2023-07-03T04:01:50.780Z,30.24
2023-07-03T04:02:50.779Z,30.26
2023-07-03T04:03:50.859Z,30.23
2023-07-03T04:04:50.864Z,30.23
2023-07-03T04:05:51.048Z,30.24
2023-07-03T04:06:50.914Z,30.26
2023-07-03T04:07:50.928Z,30.28
2023-07-03T04:08:51.010Z,30.24
2023-07-03T04:09:51.004Z,30.26
2023-07-03T04:10:50.996Z,30.23
2023-07-03T04:11:51.038Z,30.24
2023-07-03T04:12:51.060Z,30.24
2023-07-03T04:13:51.135Z,30.24
2023-07-03T04:14:51.129Z,30.24
2023-07-03T04:15:52.507Z,30.21
2023-07-03T04:16:51.313Z,30.21
2023-07-03T04:17:51.237Z,30.21
2023-07-03T04:18:51.271Z,30.24
2023-07-03T04:19:51.287Z,30.23
2023-07-03T04:20:51.324Z,30.26
2023-07-03T04:21:51.347Z,30.24
2023-07-03T04:22:51.367Z,30.26
2023-07-03T04:23:51.417Z,30.23
2023-07-03T04:24:51.443Z,30.21
2023-07-03T04:25:51.641Z,30.23
2023-07-03T04:26:51.497Z,30.23
2023-07-03T04:27:51.531Z,30.24
2023-07-03T04:28:51.580Z,30.21
2023-07-03T04:29:51.613Z,30.24
2023-07-03T04:30:51.650Z,30.21
2023-07-03T04:31:51.737Z,30.21
2023-07-03T04:32:51.729Z,30.21
2023-07-03T04:33:51.722Z,30.24
2023-07-03T04:34:51.772Z,30.24
2023-07-03T04:35:52.030Z,30.21
2023-07-03T04:36:51.826Z,30.21
2023-07-03T04:37:51.855Z,30.20
2023-07-03T04:38:51.885Z,30.23
2023-07-03T04:39:51.921Z,30.23
2023-07-03T04:40:51.964Z,30.24
2023-07-03T04:41:52.006Z,30.21
2023-07-03T04:42:52.031Z,30.23
2023-07-03T04:43:52.202Z,30.21
2023-07-03T04:44:52.120Z,30.21
2023-07-03T04:45:52.446Z,30.20
2023-07-03T04:46:52.211Z,30.21
2023-07-03T04:47:52.258Z,30.21
2023-07-03T04:48:52.245Z,30.20
2023-07-03T04:49:52.265Z,30.23
2023-07-03T04:50:52.298Z,30.21
2023-07-03T04:51:52.353Z,30.20
2023-07-03T04:52:52.373Z,30.21
2023-07-03T04:53:52.429Z,30.23
2023-07-03T04:54:52.466Z,30.23
2023-07-03T04:55:52.768Z,30.23
2023-07-03T04:56:52.537Z,30.24
2023-07-03T04:57:52.538Z,30.21
2023-07-03T04:58:52.587Z,30.21
2023-07-03T04:59:52.618Z,30.21
2023-07-03T05:00:52.644Z,30.23
2023-07-03T05:01:52.824Z,30.23
2023-07-03T05:02:52.877Z,30.23
2023-07-03T05:03:52.804Z,30.23
2023-07-03T05:04:52.817Z,30.24
2023-07-03T05:05:52.991Z,30.21
2023-07-03T05:06:52.861Z,30.20
2023-07-03T05:07:52.944Z,30.24
2023-07-03T05:08:52.930Z,30.23
2023-07-03T05:09:52.973Z,30.23
2023-07-03T05:10:53.033Z,30.21
2023-07-03T05:11:53.048Z,30.24
2023-07-03T05:12:53.112Z,30.26
2023-07-03T05:13:53.107Z,30.24
2023-07-03T05:14:53.142Z,30.24
2023-07-03T05:15:53.427Z,30.24
2023-07-03T05:16:53.216Z,30.23
2023-07-03T05:17:53.278Z,30.24
2023-07-03T05:18:53.289Z,30.24
2023-07-03T05:19:53.343Z,30.27
2023-07-03T05:20:53.400Z,30.26
2023-07-03T05:21:53.424Z,30.27
2023-07-03T05:22:53.448Z,30.27
2023-07-03T05:23:53.496Z,30.27
2023-07-03T05:24:53.576Z,30.26
2023-07-03T05:25:53.893Z,30.27
2023-07-03T05:26:53.609Z,30.26
2023-07-03T05:27:53.760Z,30.27
2023-07-03T05:28:53.668Z,30.27
2023-07-03T05:29:53.800Z,30.27
2023-07-03T05:30:53.781Z,30.27
2023-07-03T05:31:54.299Z,30.24
2023-07-03T05:32:53.862Z,30.27
2023-07-03T05:33:53.895Z,30.28
2023-07-03T05:34:53.903Z,30.27
2023-07-03T05:35:54.797Z,30.30
2023-07-03T05:36:53.954Z,30.24
2023-07-03T05:37:54.008Z,30.27
2023-07-03T05:38:54.026Z,30.30
2023-07-03T05:39:54.084Z,30.30
2023-07-03T05:40:54.105Z,30.26
2023-07-03T05:41:54.294Z,30.27
2023-07-03T05:42:54.189Z,30.23
2023-07-03T05:43:54.226Z,30.26
2023-07-03T05:44:54.325Z,30.28
2023-07-03T05:45:54.503Z,30.27
2023-07-03T05:46:54.411Z,30.30
2023-07-03T05:47:54.440Z,30.30
2023-07-03T05:48:54.523Z,30.31
2023-07-03T05:49:54.460Z,30.30
2023-07-03T05:50:54.496Z,30.31
2023-07-03T05:51:54.557Z,30.30
2023-07-03T05:52:54.571Z,30.30
2023-07-03T05:53:54.633Z,30.35
2023-07-03T05:54:54.664Z,30.34
2023-07-03T05:55:54.709Z,30.38
2023-07-03T05:56:54.903Z,30.41
2023-07-03T05:57:54.779Z,30.43
2023-07-03T05:58:54.802Z,30.44
2023-07-03T05:59:54.808Z,30.47
2023-07-03T06:00:54.888Z,30.50
2023-07-03T06:01:55.413Z,30.53
2023-07-03T06:02:55.167Z,30.53
2023-07-03T06:03:54.965Z,30.54
2023-07-03T06:04:55.060Z,30.53
2023-07-03T06:05:55.234Z,30.55
2023-07-03T06:06:55.027Z,30.57
2023-07-03T06:07:55.049Z,30.58
2023-07-03T06:08:55.066Z,30.60
2023-07-03T06:09:55.168Z,30.61
2023-07-03T06:10:55.100Z,30.63
2023-07-03T06:11:55.157Z,30.65
2023-07-03T06:12:55.139Z,30.67
2023-07-03T06:13:55.169Z,30.65
2023-07-03T06:14:55.177Z,30.70
2023-07-03T06:15:55.200Z,30.70
2023-07-03T06:16:55.310Z,30.71
2023-07-03T06:17:55.334Z,30.73
2023-07-03T06:18:55.252Z,30.74
2023-07-03T06:19:55.268Z,30.75
2023-07-03T06:20:55.285Z,30.79
2023-07-03T06:21:55.311Z,30.79
2023-07-03T06:22:55.312Z,30.77
2023-07-03T06:23:55.323Z,30.74
2023-07-03T06:24:55.340Z,30.75
2023-07-03T06:25:55.364Z,30.77
2023-07-03T06:26:55.370Z,30.78
2023-07-03T06:27:55.380Z,30.79
2023-07-03T06:28:55.396Z,30.81
2023-07-03T06:29:55.405Z,30.82
2023-07-03T06:30:55.482Z,30.85
2023-07-03T06:31:55.430Z,30.89
2023-07-03T06:32:55.489Z,30.91
2023-07-03T06:33:55.424Z,30.94
2023-07-03T06:34:55.497Z,30.95
2023-07-03T06:35:55.700Z,30.98
2023-07-03T06:36:55.436Z,31.03
2023-07-03T06:37:55.424Z,31.02
2023-07-03T06:38:55.415Z,30.99
2023-07-03T06:39:55.484Z,31.03
2023-07-03T06:40:55.455Z,31.03
2023-07-03T06:41:55.823Z,31.08
2023-07-03T06:42:55.505Z,31.08
2023-07-03T06:43:55.414Z,31.11
2023-07-03T06:44:55.445Z,31.11
2023-07-03T06:45:57.259Z,31.09
2023-07-03T06:46:55.432Z,31.08
2023-07-03T06:47:55.411Z,31.08
2023-07-03T06:48:55.382Z,31.08
2023-07-03T06:49:55.371Z,31.07
2023-07-03T06:50:55.397Z,31.05
2023-07-03T06:51:55.846Z,31.03
2023-07-03T06:52:55.349Z,31.01
2023-07-03T06:53:55.350Z,30.99
2023-07-03T06:54:55.326Z,30.98
2023-07-03T06:55:56.969Z,30.95
2023-07-03T06:56:55.342Z,30.97
2023-07-03T06:57:55.323Z,30.94
2023-07-03T06:58:55.361Z,30.94
2023-07-03T06:59:55.328Z,30.91
2023-07-03T07:00:55.302Z,30.88
2023-07-03T07:01:55.370Z,30.88
2023-07-03T07:02:55.423Z,30.87
2023-07-03T07:03:55.329Z,30.87
2023-07-03T07:04:55.371Z,30.87
2023-07-03T07:05:55.809Z,30.82
2023-07-03T07:06:55.295Z,30.81
2023-07-03T07:07:55.384Z,30.81
2023-07-03T07:08:55.244Z,30.78
2023-07-03T07:09:55.246Z,30.78
2023-07-03T07:10:55.246Z,30.78
2023-07-03T07:11:55.228Z,30.75
2023-07-03T07:12:55.235Z,30.77
2023-07-03T07:13:55.217Z,30.75
2023-07-03T07:14:55.304Z,30.74
2023-07-03T07:15:55.223Z,30.77
2023-07-03T07:16:55.312Z,30.74
2023-07-03T07:17:55.199Z,30.73
2023-07-03T07:18:55.189Z,30.70
2023-07-03T07:19:56.709Z,30.71
2023-07-03T07:20:55.180Z,30.68
2023-07-03T07:21:55.165Z,30.67
2023-07-03T07:22:55.159Z,30.68
2023-07-03T07:23:55.157Z,30.67
2023-07-03T07:24:55.148Z,30.65
2023-07-03T07:25:56.380Z,30.64
2023-07-03T07:26:55.148Z,30.64
2023-07-03T07:27:55.170Z,30.64
2023-07-03T07:28:55.122Z,30.64
2023-07-03T07:29:55.109Z,30.61
2023-07-03T07:30:55.251Z,30.61
2023-07-03T07:31:55.130Z,30.58
2023-07-03T07:32:55.115Z,30.67
2023-07-03T07:33:55.093Z,30.64
2023-07-03T07:34:55.074Z,30.64
2023-07-03T07:35:55.090Z,30.63
2023-07-03T07:36:55.073Z,30.64
2023-07-03T07:37:55.066Z,30.64
2023-07-03T07:38:56.576Z,30.61
2023-07-03T07:39:55.053Z,30.63
2023-07-03T07:40:55.133Z,30.61
2023-07-03T07:41:55.138Z,30.60
2023-07-03T07:42:55.054Z,30.60
2023-07-03T07:43:55.070Z,30.60
2023-07-03T07:44:55.018Z,30.60
2023-07-03T07:45:55.036Z,30.58
2023-07-03T07:46:55.121Z,30.51
2023-07-03T07:47:55.019Z,30.54
2023-07-03T07:48:55.001Z,30.57
2023-07-03T07:49:55.030Z,30.55
2023-07-03T07:50:54.988Z,30.54
2023-07-03T07:51:54.990Z,30.53
2023-07-03T07:52:54.958Z,30.57
2023-07-03T07:53:54.982Z,30.55
2023-07-03T07:54:54.956Z,30.55
2023-07-03T07:55:54.973Z,30.55
2023-07-03T07:56:55.014Z,30.57
2023-07-03T07:57:55.053Z,30.55
2023-07-03T07:58:55.040Z,30.55
2023-07-03T07:59:55.087Z,30.51
2023-07-03T08:00:55.160Z,30.54
2023-07-03T08:01:55.158Z,30.55
2023-07-03T08:02:55.274Z,30.55
2023-07-03T08:03:55.192Z,30.55
2023-07-03T08:04:55.248Z,30.60
2023-07-03T08:05:55.172Z,30.60
2023-07-03T08:06:55.205Z,30.64
2023-07-03T08:07:55.211Z,30.65
2023-07-03T08:08:55.273Z,30.63
2023-07-03T08:09:55.235Z,30.67
2023-07-03T08:10:55.272Z,30.63
2023-07-03T08:11:55.316Z,30.63
2023-07-03T08:12:55.301Z,30.57
2023-07-03T08:13:55.343Z,30.61
2023-07-03T08:14:55.356Z,30.58
2023-07-03T08:15:55.597Z,30.60
2023-07-03T08:16:55.500Z,30.58
2023-07-03T08:17:55.453Z,30.60
2023-07-03T08:18:55.549Z,30.60
2023-07-03T08:19:55.454Z,30.58
2023-07-03T08:20:55.474Z,30.51
2023-07-03T08:21:55.560Z,30.54
2023-07-03T08:22:55.521Z,30.53
2023-07-03T08:23:55.568Z,30.53
2023-07-03T08:24:55.562Z,30.53
2023-07-03T08:25:55.609Z,30.51
2023-07-03T08:26:55.618Z,30.51
2023-07-03T08:27:55.667Z,30.53
2023-07-03T08:28:55.670Z,30.53
2023-07-03T08:29:57.136Z,30.50
2023-07-03T08:30:55.859Z,30.51
2023-07-03T08:31:55.858Z,30.50
2023-07-03T08:32:55.824Z,30.48
2023-07-03T08:33:55.895Z,30.47
2023-07-03T08:37:55.820Z,30.43
2023-07-03T08:38:55.812Z,30.40
2023-07-03T08:39:55.801Z,30.38
2023-07-03T08:40:55.827Z,30.27
2023-07-03T08:41:55.830Z,30.09
2023-07-03T08:42:55.799Z,30.01
2023-07-03T08:43:55.817Z,30.00
2023-07-03T08:44:55.776Z,30.01
2023-07-03T08:45:55.797Z,30.04
2023-07-03T08:47:10.324Z,30.07
2023-07-03T08:47:56.788Z,30.10
2023-07-03T08:48:55.749Z,30.10
2023-07-03T08:49:55.734Z,30.17
2023-07-03T08:50:56.081Z,30.14
2023-07-03T08:51:56.394Z,30.16
2023-07-03T08:52:55.715Z,30.17
2023-07-03T08:53:55.724Z,30.19
2023-07-03T08:54:55.777Z,30.19
2023-07-03T08:55:55.695Z,30.17
2023-07-03T08:56:55.686Z,30.16
2023-07-03T08:57:55.708Z,30.17
2023-07-03T08:58:55.763Z,30.20
2023-07-03T08:59:55.810Z,30.24
2023-07-03T09:00:55.917Z,30.27
2023-07-03T09:01:55.905Z,30.31
2023-07-03T09:02:56.007Z,30.31
2023-07-03T09:03:56.011Z,30.35
2023-07-03T09:04:56.045Z,30.38
2023-07-03T09:05:56.068Z,30.40
2023-07-03T09:06:56.157Z,30.43
2023-07-03T09:07:56.108Z,30.45
2023-07-03T09:08:56.141Z,30.51
2023-07-03T09:09:56.200Z,30.51
2023-07-03T09:10:56.199Z,30.54
2023-07-03T09:11:56.407Z,30.54
2023-07-03T09:12:56.236Z,30.55
2023-07-03T09:13:56.248Z,30.58
2023-07-03T09:14:56.263Z,30.58
2023-07-03T09:15:56.321Z,30.58
2023-07-03T09:16:56.346Z,30.57
2023-07-03T09:17:56.407Z,30.58
2023-07-03T09:18:56.399Z,30.58
2023-07-03T09:19:56.396Z,30.57
2023-07-03T09:20:56.514Z,30.61
2023-07-03T09:21:56.426Z,30.64
2023-07-03T09:22:56.506Z,30.64
2023-07-03T09:23:57.307Z,30.65
2023-07-03T09:24:56.562Z,30.70
2023-07-03T09:25:57.751Z,30.70
2023-07-03T09:26:58.508Z,30.75
2023-07-03T09:27:56.507Z,30.82
2023-07-03T09:28:56.477Z,30.87
2023-07-03T09:29:56.536Z,30.91
2023-07-03T09:30:56.572Z,30.92
2023-07-03T09:31:57.079Z,30.95
2023-07-03T09:32:56.713Z,30.97
2023-07-03T09:33:56.443Z,31.01
2023-07-03T09:34:56.535Z,31.01
2023-07-03T09:35:56.987Z,31.01
2023-07-03T09:36:56.428Z,31.05
2023-07-03T09:37:56.475Z,31.02
2023-07-03T09:38:56.523Z,31.02
2023-07-03T09:39:56.466Z,31.05
2023-07-03T09:40:59.651Z,31.05
2023-07-03T09:41:56.472Z,31.05
2023-07-03T09:42:56.465Z,31.05
2023-07-03T09:43:56.450Z,31.05
2023-07-03T09:44:56.438Z,31.07
2023-07-03T09:45:56.439Z,31.05
2023-07-03T09:46:56.459Z,31.03
2023-07-03T09:47:56.515Z,31.05
2023-07-03T09:48:56.449Z,31.05
2023-07-03T09:49:56.949Z,31.07
2023-07-03T09:51:56.408Z,31.05
2023-07-03T09:53:07.387Z,31.03
2023-07-03T09:53:57.371Z,31.05
2023-07-03T09:54:56.439Z,31.02
2023-07-03T09:55:56.375Z,31.05
2023-07-03T09:56:56.374Z,31.05
2023-07-03T09:57:56.356Z,31.03
2023-07-03T09:58:56.350Z,31.07
2023-07-03T09:59:56.362Z,31.03
2023-07-03T10:00:56.690Z,31.05
2023-07-03T10:03:56.402Z,31.03
2023-07-03T10:06:56.403Z,31.02
2023-07-03T10:07:56.389Z,31.07
2023-07-03T10:11:56.332Z,31.07
2023-07-03T10:12:56.335Z,31.05
2023-07-03T10:13:56.241Z,31.05
2023-07-03T10:14:56.241Z,31.05
2023-07-03T10:15:56.237Z,31.05
2023-07-03T10:16:56.262Z,31.05
2023-07-03T10:17:56.261Z,31.05
2023-07-03T10:18:56.226Z,31.02
2023-07-03T10:19:56.211Z,31.02
2023-07-03T10:20:56.203Z,31.03
2023-07-03T10:21:56.217Z,31.05
2023-07-03T10:22:56.182Z,31.05
2023-07-03T10:23:56.209Z,31.05
2023-07-03T10:24:56.176Z,31.07
2023-07-03T10:25:56.182Z,31.02
2023-07-03T10:26:56.171Z,31.03
2023-07-03T10:27:56.160Z,31.03
2023-07-03T10:28:56.156Z,31.03
2023-07-03T10:29:56.163Z,31.05
2023-07-03T10:30:56.130Z,31.07
2023-07-03T10:31:56.187Z,31.03
2023-07-03T10:32:56.153Z,31.05
2023-07-03T10:33:56.133Z,31.05
2023-07-03T10:34:56.104Z,31.07
2023-07-03T10:35:56.096Z,31.03
2023-07-03T10:36:56.108Z,31.02
2023-07-03T10:37:56.088Z,31.05
2023-07-03T10:38:56.095Z,31.03
2023-07-03T10:39:56.074Z,31.05
2023-07-03T10:40:56.066Z,31.07
2023-07-03T10:41:56.078Z,31.08
2023-07-03T10:42:56.246Z,31.03
2023-07-03T10:43:56.048Z,31.07
2023-07-03T10:44:56.058Z,31.07
2023-07-03T10:45:56.095Z,31.07
2023-07-03T10:46:56.033Z,31.05
2023-07-03T10:47:56.072Z,31.05
2023-07-03T10:48:56.011Z,31.08
2023-07-03T10:49:56.010Z,31.03
2023-07-03T10:50:55.992Z,31.08
2023-07-03T10:51:56.004Z,31.05
2023-07-03T10:52:55.983Z,31.05
2023-07-03T10:53:55.982Z,31.07
2023-07-03T10:54:55.969Z,31.05
2023-07-03T10:55:55.959Z,31.08
2023-07-03T10:56:55.963Z,31.05
2023-07-03T10:57:55.954Z,31.05
2023-07-03T10:58:56.026Z,31.03
2023-07-03T10:59:55.968Z,31.03
2023-07-03T11:00:55.983Z,31.05
2023-07-03T11:01:56.030Z,31.05
2023-07-03T11:02:56.002Z,31.07
2023-07-03T11:04:15.749Z,31.05
2023-07-03T11:04:56.951Z,31.07
2023-07-03T11:05:55.901Z,31.07
2023-07-03T11:06:55.897Z,31.07
2023-07-03T11:07:55.882Z,31.05
2023-07-03T11:08:55.887Z,31.07
2023-07-03T11:09:55.880Z,31.08
2023-07-03T11:10:55.869Z,31.08
2023-07-03T11:11:55.884Z,31.07
2023-07-03T11:12:55.853Z,31.08
2023-07-03T11:13:55.946Z,31.07
2023-07-03T11:14:55.939Z,31.08
2023-07-03T11:15:55.902Z,31.09
2023-07-03T11:16:55.920Z,31.07
2023-07-03T11:19:55.939Z,31.09
2023-07-03T11:22:55.906Z,31.07
2023-07-03T11:23:58.475Z,31.08
2023-07-03T11:24:56.125Z,31.07
2023-07-03T11:27:56.176Z,31.08
2023-07-03T11:28:56.164Z,31.07
2023-07-03T11:29:56.165Z,31.09
2023-07-03T11:30:56.254Z,31.09
2023-07-03T11:31:56.286Z,31.09
2023-07-03T11:32:56.222Z,31.09
2023-07-03T11:35:56.119Z,31.09
2023-07-03T11:39:56.154Z,31.08
2023-07-03T11:40:56.106Z,31.08
2023-07-03T11:43:56.061Z,31.11
2023-07-03T11:44:56.047Z,31.11
2023-07-03T11:45:56.060Z,31.09
2023-07-03T11:46:56.120Z,31.09
2023-07-03T11:47:56.061Z,31.09
2023-07-03T11:48:56.039Z,31.11
2023-07-03T11:49:56.025Z,31.07
2023-07-03T11:50:56.020Z,31.08
2023-07-03T11:51:56.045Z,31.08
2023-07-03T11:52:56.002Z,31.09
2023-07-03T11:53:56.008Z,31.07
2023-07-03T11:54:55.976Z,31.09
2023-07-03T11:55:55.980Z,31.08
2023-07-03T11:56:56.026Z,31.09
2023-07-03T11:58:08.958Z,31.08
2023-07-03T11:58:58.740Z,31.08
2023-07-03T11:59:55.976Z,31.08
2023-07-03T12:00:56.012Z,31.05
2023-07-03T12:01:55.957Z,31.07
2023-07-03T12:02:55.956Z,31.08
2023-07-03T12:03:55.985Z,31.07
2023-07-03T12:04:55.910Z,31.09
2023-07-03T12:05:55.949Z,31.08
2023-07-03T12:06:55.883Z,31.07
2023-07-03T12:07:55.900Z,31.08
2023-07-03T12:08:55.887Z,31.07
2023-07-03T12:09:55.866Z,31.09
2023-07-03T12:10:56.889Z,31.07
2023-07-03T12:11:55.852Z,31.08
2023-07-03T12:12:55.858Z,31.07
2023-07-03T12:13:55.874Z,31.08
2023-07-03T12:14:55.829Z,31.08
2023-07-03T12:15:55.845Z,31.08
2023-07-03T12:16:55.923Z,31.08
2023-07-03T12:17:55.855Z,31.05
2023-07-03T12:18:55.797Z,31.08
2023-07-03T12:19:55.806Z,31.09
2023-07-03T12:20:55.782Z,31.08
2023-07-03T12:21:55.773Z,31.08
2023-07-03T12:22:55.774Z,31.07
2023-07-03T12:23:55.768Z,31.05
2023-07-03T12:24:55.754Z,31.08
2023-07-03T12:25:55.757Z,31.07
2023-07-03T12:26:55.749Z,31.09
2023-07-03T12:27:55.738Z,31.08
2023-07-03T12:28:55.738Z,31.08
2023-07-03T12:29:55.737Z,31.09
2023-07-03T12:30:55.747Z,31.08
2023-07-03T12:31:55.707Z,31.09
2023-07-03T12:32:55.756Z,31.08
2023-07-03T12:33:55.700Z,31.09
2023-07-03T12:34:55.690Z,31.08
2023-07-03T12:35:55.677Z,31.09
2023-07-03T12:37:02.157Z,31.09
2023-07-03T12:37:56.699Z,31.09
2023-07-03T12:38:55.661Z,31.07
2023-07-03T12:39:55.655Z,31.09
2023-07-03T12:40:55.645Z,31.09
2023-07-03T12:41:55.636Z,31.08
2023-07-03T12:42:55.640Z,31.08
2023-07-03T12:44:07.388Z,31.09
2023-07-03T12:44:56.632Z,31.08
2023-07-03T12:45:55.765Z,31.09
2023-07-03T12:46:55.671Z,31.08
2023-07-03T12:47:55.636Z,31.11
2023-07-03T12:48:55.593Z,31.11
2023-07-03T12:49:55.585Z,31.08
2023-07-03T12:50:55.607Z,31.08
2023-07-03T12:51:55.571Z,31.08
2023-07-03T12:52:55.568Z,31.11
2023-07-03T12:53:55.603Z,31.09
2023-07-03T12:55:09.461Z,31.08
2023-07-03T12:55:56.624Z,31.11
2023-07-03T12:56:55.632Z,31.11
2023-07-03T12:57:55.610Z,31.09
2023-07-03T12:58:55.607Z,31.11
2023-07-03T12:59:55.616Z,31.11
2023-07-03T13:00:55.619Z,31.11
2023-07-03T13:01:55.578Z,31.11
2023-07-03T13:02:55.662Z,31.14
2023-07-03T13:03:55.559Z,31.11
2023-07-03T13:04:55.650Z,31.12
2023-07-03T13:05:55.923Z,31.11
2023-07-03T13:06:55.715Z,31.11
2023-07-03T13:07:55.780Z,31.11
2023-07-03T13:08:55.839Z,31.09
2023-07-03T13:09:55.911Z,31.11
2023-07-03T13:10:57.394Z,31.11
2023-07-03T13:11:55.895Z,31.09
2023-07-03T13:12:55.903Z,31.11
2023-07-03T13:13:55.985Z,31.08
2023-07-03T13:14:55.882Z,31.11
2023-07-03T13:15:55.913Z,31.11
2023-07-03T13:16:56.088Z,31.12